Terminal Aerodrome Forecast
Issued by NWS

Home | Current Version | Previous Version | Text Only | Print | Product List | Glossary On
Versions: 1 2 3 4 5 6 7 8 9 10 11 12 13 14 15 16 17
344
FTUS42 KMLB 062115 AAA
TAFISM
TAF AMD
KISM 062115Z 0621/0718 36006KT P6SM -RA FEW015 SCT035 OVC060
      TEMPO 0621/0624 4SM RA BR BKN015 OVC030
     FM070000 34012KT P6SM BKN020 OVC040
      TEMPO 0700/0702 3SM SHRA OVC012
     FM070300 32014G21KT P6SM VCSH BKN012
     FM070800 32018G26KT P6SM BKN010
     FM071300 31019G27KT P6SM BKN015=

USA.gov is the U.S. government's official web portal to all federal, state and local government web resources and services.